FDX904 KMEM-KPHX
Flight info
| Callsign | FDX904 |
|---|---|
| Flight time | N/A |
| Altitude | 28000 |
| Route | ZUMIT5 FOXOM FSM IRW J6 ZUN EAGUL6 |
| Aircraft | B77L/H-SDE1E2E3FGHIJ2J3J4J5M1RWXY/LB1D1 |
Departure
| Time | 2026-05-04 22:42 |
|---|---|
| Airport | Memphis International Airport (KMEM) |
Arrival
| Time | N/A |
|---|---|
| Airport | Phoenix Sky Harbor International Airport (KPHX) |
| Time | Latitude | Longitude | Altitude | Speed | Heading |
|---|---|---|---|---|---|
| 2026-05-04 21:57 | 35.06263 | -89.97435 | 335 ft | 0 kts | 359° |
| 2026-05-04 22:31 | 35.06253 | -89.97434 | 331 ft | 4 kts | 355° |
| 2026-05-04 22:31 | 35.06227 | -89.97429 | 331 ft | 4 kts | 338° |
| 2026-05-04 22:32 | 35.06205 | -89.97412 | 330 ft | 4 kts | 305° |
| 2026-05-04 22:32 | 35.06197 | -89.97389 | 330 ft | 1 kts | 270° |
| 2026-05-04 22:32 | 35.06197 | -89.97388 | 330 ft | 0 kts | 270° |
| 2026-05-04 22:35 | 35.06197 | -89.97394 | 330 ft | 1 kts | 270° |
| 2026-05-04 22:35 | 35.06197 | -89.97403 | 330 ft | 2 kts | 269° |
| 2026-05-04 22:35 | 35.06197 | -89.97411 | 330 ft | 0 kts | 269° |
| 2026-05-04 22:36 | 35.06197 | -89.97430 | 330 ft | 2 kts | 269° |
| 2026-05-04 22:36 | 35.06197 | -89.97449 | 330 ft | 2 kts | 269° |
| 2026-05-04 22:36 | 35.06196 | -89.97476 | 331 ft | 6 kts | 269° |
| 2026-05-04 22:36 | 35.06173 | -89.97534 | 331 ft | 8 kts | 210° |
| 2026-05-04 22:37 | 35.06116 | -89.97542 | 332 ft | 8 kts | 180° |
| 2026-05-04 22:37 | 35.06059 | -89.97542 | 332 ft | 8 kts | 179° |
| 2026-05-04 22:37 | 35.06001 | -89.97539 | 333 ft | 8 kts | 174° |
| 2026-05-04 22:37 | 35.05945 | -89.97522 | 333 ft | 8 kts | 165° |
| 2026-05-04 22:38 | 35.05889 | -89.97504 | 331 ft | 8 kts | 165° |
| 2026-05-04 22:38 | 35.05833 | -89.97487 | 333 ft | 8 kts | 171° |
| 2026-05-04 22:38 | 35.05775 | -89.97484 | 333 ft | 8 kts | 181° |
| 2026-05-04 22:38 | 35.05717 | -89.97486 | 330 ft | 8 kts | 182° |
| 2026-05-04 22:39 | 35.05659 | -89.97488 | 332 ft | 8 kts | 180° |
| 2026-05-04 22:39 | 35.05602 | -89.97488 | 331 ft | 8 kts | 179° |
| 2026-05-04 22:39 | 35.05546 | -89.97486 | 331 ft | 7 kts | 179° |
| 2026-05-04 22:39 | 35.05499 | -89.97501 | 328 ft | 7 kts | 209° |
| 2026-05-04 22:40 | 35.05458 | -89.97550 | 326 ft | 9 kts | 229° |
| 2026-05-04 22:40 | 35.05411 | -89.97605 | 325 ft | 10 kts | 209° |
| 2026-05-04 22:40 | 35.05346 | -89.97616 | 327 ft | 10 kts | 180° |
| 2026-05-04 22:40 | 35.05226 | -89.97614 | 325 ft | 32 kts | 179° |
| 2026-05-04 22:41 | 35.04788 | -89.97604 | 324 ft | 94 kts | 179° |
| 2026-05-04 22:41 | 35.03953 | -89.97587 | 327 ft | 144 kts | 179° |
| 2026-05-04 22:41 | 35.02821 | -89.97564 | 374 ft | 176 kts | 179° |
| 2026-05-04 22:41 | 35.01595 | -89.97524 | 875 ft | 175 kts | 181° |
| 2026-05-04 22:42 | 35.00390 | -89.97476 | 1495 ft | 171 kts | 183° |
| 2026-05-04 22:42 | 34.99180 | -89.97460 | 1970 ft | 178 kts | 187° |
| 2026-05-04 22:42 | 34.97962 | -89.97930 | 2247 ft | 196 kts | 213° |
| 2026-05-04 22:42 | 34.96805 | -89.98984 | 2452 ft | 216 kts | 217° |
| 2026-05-04 22:43 | 34.95589 | -90.00110 | 2938 ft | 228 kts | 219° |
| 2026-05-04 22:43 | 34.94559 | -90.01651 | 3427 ft | 244 kts | 242° |
| 2026-05-04 22:43 | 34.94162 | -90.03705 | 4123 ft | 256 kts | 264° |
| 2026-05-04 22:43 | 34.94209 | -90.05891 | 4910 ft | 260 kts | 269° |
| 2026-05-04 22:44 | 34.94320 | -90.08114 | 5573 ft | 265 kts | 268° |
| 2026-05-04 22:44 | 34.94350 | -90.10362 | 6378 ft | 262 kts | 269° |
| 2026-05-04 22:44 | 34.94646 | -90.12566 | 7039 ft | 270 kts | 285° |
| 2026-05-04 22:44 | 34.95507 | -90.14637 | 7654 ft | 277 kts | 296° |
| 2026-05-04 22:45 | 34.96490 | -90.16667 | 8375 ft | 278 kts | 294° |
| 2026-05-04 22:45 | 34.98246 | -90.20879 | 9839 ft | 280 kts | 291° |
| 2026-05-04 22:45 | 34.99088 | -90.23042 | 10403 ft | 287 kts | 291° |
| 2026-05-04 22:46 | 34.99951 | -90.25336 | 10673 ft | 307 kts | 290° |
| 2026-05-04 22:46 | 35.00804 | -90.27800 | 11005 ft | 324 kts | 288° |
| 2026-05-04 22:46 | 35.01614 | -90.30451 | 11306 ft | 343 kts | 287° |
| 2026-05-04 22:46 | 35.02498 | -90.33253 | 11607 ft | 363 kts | 289° |
| 2026-05-04 22:47 | 35.03462 | -90.36143 | 12243 ft | 372 kts | 290° |
| 2026-05-04 22:47 | 35.04546 | -90.39028 | 13144 ft | 374 kts | 292° |
| 2026-05-04 22:47 | 35.05679 | -90.41884 | 14164 ft | 373 kts | 294° |
| 2026-05-04 22:47 | 35.06829 | -90.44745 | 14855 ft | 379 kts | 294° |
| 2026-05-04 22:48 | 35.07983 | -90.47651 | 15617 ft | 382 kts | 294° |
| 2026-05-04 22:48 | 35.09126 | -90.50569 | 16532 ft | 381 kts | 294° |
| 2026-05-04 22:48 | 35.10265 | -90.53502 | 17278 ft | 385 kts | 295° |
| 2026-05-04 22:48 | 35.11413 | -90.56477 | 17944 ft | 390 kts | 295° |
| 2026-05-04 22:49 | 35.12559 | -90.59455 | 18588 ft | 394 kts | 295° |
| 2026-05-04 22:49 | 35.13726 | -90.62488 | 19264 ft | 396 kts | 295° |
| 2026-05-04 22:49 | 35.14898 | -90.65539 | 19946 ft | 398 kts | 295° |
| 2026-05-04 22:49 | 35.16077 | -90.68610 | 20593 ft | 400 kts | 295° |
| 2026-05-04 22:50 | 35.17261 | -90.71701 | 21201 ft | 402 kts | 294° |
| 2026-05-04 22:50 | 35.18145 | -90.74959 | 21634 ft | 410 kts | 280° |
| 2026-05-04 22:50 | 35.18245 | -90.78418 | 22138 ft | 411 kts | 270° |
| 2026-05-04 22:50 | 35.18197 | -90.81930 | 22680 ft | 415 kts | 272° |
| 2026-05-04 22:51 | 35.18231 | -90.85472 | 23304 ft | 418 kts | 273° |
| 2026-05-04 22:51 | 35.18297 | -90.89033 | 23862 ft | 420 kts | 274° |
| 2026-05-04 22:51 | 35.18365 | -90.92602 | 24454 ft | 420 kts | 274° |
| 2026-05-04 22:51 | 35.18425 | -90.96174 | 25054 ft | 420 kts | 274° |
| 2026-05-04 22:52 | 35.18478 | -90.99749 | 25632 ft | 421 kts | 274° |
| 2026-05-04 22:52 | 35.18583 | -91.03335 | 26168 ft | 422 kts | 276° |
| 2026-05-04 22:52 | 35.18814 | -91.06916 | 26684 ft | 423 kts | 278° |
| 2026-05-04 22:52 | 35.19101 | -91.10499 | 27207 ft | 424 kts | 278° |
| 2026-05-04 22:53 | 35.19402 | -91.14089 | 27740 ft | 425 kts | 278° |
| 2026-05-04 22:53 | 35.19702 | -91.17695 | 27908 ft | 429 kts | 278° |
| 2026-05-04 22:53 | 35.19999 | -91.21369 | 27912 ft | 438 kts | 278° |
| 2026-05-04 22:53 | 35.20290 | -91.25092 | 27912 ft | 443 kts | 278° |
| 2026-05-04 22:54 | 35.20574 | -91.28847 | 27911 ft | 443 kts | 278° |
| 2026-05-04 22:54 | 35.20850 | -91.32597 | 27905 ft | 442 kts | 278° |
| 2026-05-04 22:54 | 35.21123 | -91.36337 | 27905 ft | 441 kts | 278° |
| 2026-05-04 22:54 | 35.21393 | -91.40067 | 27900 ft | 440 kts | 278° |
| 2026-05-04 22:55 | 35.21658 | -91.43746 | 27894 ft | 439 kts | 278° |
| 2026-05-04 22:55 | 35.21926 | -91.47469 | 27894 ft | 439 kts | 278° |
| 2026-05-04 22:55 | 35.22192 | -91.51189 | 27896 ft | 439 kts | 278° |
| 2026-05-04 22:55 | 35.22458 | -91.54910 | 27878 ft | 439 kts | 278° |
| 2026-05-04 22:56 | 35.22722 | -91.58629 | 27884 ft | 439 kts | 278° |
| 2026-05-04 22:56 | 35.22987 | -91.62354 | 27887 ft | 439 kts | 278° |
| 2026-05-04 22:56 | 35.23250 | -91.66081 | 27893 ft | 439 kts | 278° |
| 2026-05-04 22:56 | 35.23512 | -91.69814 | 27888 ft | 439 kts | 278° |
| 2026-05-04 22:57 | 35.23774 | -91.73543 | 27899 ft | 440 kts | 278° |
| 2026-05-04 22:57 | 35.24034 | -91.77277 | 27899 ft | 441 kts | 278° |
| 2026-05-04 22:57 | 35.24294 | -91.81022 | 27896 ft | 442 kts | 278° |
| 2026-05-04 22:57 | 35.24552 | -91.84762 | 27891 ft | 442 kts | 277° |
| 2026-05-04 22:58 | 35.24811 | -91.88530 | 27866 ft | 443 kts | 277° |
| 2026-05-04 22:58 | 35.25067 | -91.92278 | 27853 ft | 443 kts | 278° |
| 2026-05-04 22:58 | 35.25322 | -91.96031 | 27864 ft | 442 kts | 278° |
| 2026-05-04 22:58 | 35.25572 | -91.99727 | 27856 ft | 442 kts | 278° |
| 2026-05-04 22:59 | 35.25824 | -92.03468 | 27859 ft | 441 kts | 278° |
| 2026-05-04 22:59 | 35.26075 | -92.07205 | 27856 ft | 441 kts | 278° |
| 2026-05-04 22:59 | 35.26326 | -92.10951 | 27855 ft | 440 kts | 278° |
| 2026-05-04 22:59 | 35.26574 | -92.14680 | 27850 ft | 440 kts | 278° |
| 2026-05-04 23:00 | 35.26821 | -92.18415 | 27854 ft | 440 kts | 278° |
| 2026-05-04 23:00 | 35.27068 | -92.22143 | 27846 ft | 440 kts | 278° |
| 2026-05-04 23:00 | 35.27313 | -92.25875 | 27854 ft | 439 kts | 278° |
| 2026-05-04 23:00 | 35.27556 | -92.29609 | 27824 ft | 439 kts | 277° |
| 2026-05-04 23:01 | 35.27797 | -92.33329 | 27841 ft | 438 kts | 277° |
| 2026-05-04 23:01 | 35.28038 | -92.37048 | 27841 ft | 438 kts | 277° |
| 2026-05-04 23:01 | 35.28277 | -92.40768 | 27846 ft | 438 kts | 277° |
| 2026-05-04 23:01 | 35.28515 | -92.44476 | 27843 ft | 438 kts | 277° |
| 2026-05-04 23:02 | 35.28752 | -92.48185 | 27844 ft | 438 kts | 277° |
| 2026-05-04 23:02 | 35.28988 | -92.51906 | 27838 ft | 437 kts | 277° |
| 2026-05-04 23:02 | 35.29222 | -92.55615 | 27842 ft | 437 kts | 277° |
| 2026-05-04 23:02 | 35.29454 | -92.59312 | 27846 ft | 437 kts | 277° |
| 2026-05-04 23:03 | 35.29687 | -92.63048 | 27842 ft | 438 kts | 277° |
| 2026-05-04 23:03 | 35.29917 | -92.66760 | 27838 ft | 438 kts | 277° |
| 2026-05-04 23:03 | 35.30147 | -92.70479 | 27836 ft | 438 kts | 277° |
| 2026-05-04 23:03 | 35.30373 | -92.74146 | 27835 ft | 438 kts | 277° |
| 2026-05-04 23:04 | 35.30601 | -92.77862 | 27829 ft | 437 kts | 277° |
| 2026-05-04 23:04 | 35.30824 | -92.81520 | 27841 ft | 437 kts | 277° |
| 2026-05-04 23:04 | 35.31049 | -92.85230 | 27844 ft | 437 kts | 277° |
| 2026-05-04 23:04 | 35.31274 | -92.88945 | 27836 ft | 437 kts | 277° |
| 2026-05-04 23:05 | 35.31497 | -92.92657 | 27843 ft | 438 kts | 277° |
| 2026-05-04 23:05 | 35.31719 | -92.96380 | 27834 ft | 438 kts | 277° |
| 2026-05-04 23:05 | 35.31940 | -93.00095 | 27839 ft | 438 kts | 277° |
| 2026-05-04 23:05 | 35.32159 | -93.03816 | 27847 ft | 438 kts | 277° |
| 2026-05-04 23:06 | 35.32378 | -93.07529 | 27826 ft | 437 kts | 277° |
| 2026-05-04 23:06 | 35.32595 | -93.11245 | 27837 ft | 437 kts | 277° |
| 2026-05-04 23:06 | 35.32810 | -93.14955 | 27839 ft | 437 kts | 277° |
| 2026-05-04 23:06 | 35.33025 | -93.18662 | 27840 ft | 436 kts | 277° |
| 2026-05-04 23:07 | 35.33238 | -93.22370 | 27841 ft | 436 kts | 277° |
| 2026-05-04 23:07 | 35.33451 | -93.26080 | 27832 ft | 436 kts | 277° |
| 2026-05-04 23:07 | 35.33662 | -93.29781 | 27833 ft | 436 kts | 277° |
| 2026-05-04 23:07 | 35.33872 | -93.33487 | 27834 ft | 436 kts | 277° |
| 2026-05-04 23:08 | 35.34080 | -93.37187 | 27823 ft | 436 kts | 277° |
| 2026-05-04 23:08 | 35.34288 | -93.40894 | 27824 ft | 436 kts | 277° |
| 2026-05-04 23:08 | 35.34491 | -93.44546 | 27822 ft | 436 kts | 277° |
| 2026-05-04 23:08 | 35.34697 | -93.48265 | 27821 ft | 436 kts | 277° |
| 2026-05-04 23:09 | 35.34902 | -93.51972 | 27813 ft | 436 kts | 277° |
| 2026-05-04 23:09 | 35.35105 | -93.55684 | 27815 ft | 436 kts | 277° |
| 2026-05-04 23:09 | 35.35307 | -93.59389 | 27811 ft | 436 kts | 277° |
| 2026-05-04 23:09 | 35.35508 | -93.63098 | 27814 ft | 436 kts | 277° |
| 2026-05-04 23:10 | 35.35708 | -93.66813 | 27813 ft | 436 kts | 277° |
| 2026-05-04 23:10 | 35.35907 | -93.70526 | 27815 ft | 436 kts | 277° |
| 2026-05-04 23:10 | 35.36104 | -93.74236 | 27814 ft | 436 kts | 276° |
| 2026-05-04 23:10 | 35.36300 | -93.77944 | 27813 ft | 436 kts | 276° |
| 2026-05-04 23:11 | 35.36496 | -93.81654 | 27793 ft | 436 kts | 277° |
| 2026-05-04 23:11 | 35.36689 | -93.85353 | 27798 ft | 435 kts | 277° |
| 2026-05-04 23:11 | 35.36881 | -93.89049 | 27803 ft | 434 kts | 277° |
| 2026-05-04 23:11 | 35.37068 | -93.92684 | 27810 ft | 433 kts | 276° |
| 2026-05-04 23:12 | 35.37258 | -93.96368 | 27807 ft | 432 kts | 277° |
| 2026-05-04 23:12 | 35.37446 | -94.00043 | 27805 ft | 432 kts | 276° |
| 2026-05-04 23:12 | 35.37633 | -94.03715 | 27803 ft | 432 kts | 276° |
| 2026-05-04 23:12 | 35.37819 | -94.07391 | 27801 ft | 432 kts | 276° |
| 2026-05-04 23:13 | 35.38003 | -94.11061 | 27802 ft | 432 kts | 276° |
| 2026-05-04 23:13 | 35.38187 | -94.14734 | 27798 ft | 432 kts | 276° |
| 2026-05-04 23:13 | 35.38369 | -94.18406 | 27795 ft | 432 kts | 276° |
| 2026-05-04 23:13 | 35.38550 | -94.22078 | 27785 ft | 431 kts | 276° |
| 2026-05-04 23:14 | 35.38730 | -94.25748 | 27788 ft | 431 kts | 276° |
| 2026-05-04 23:14 | 35.38838 | -94.29426 | 27797 ft | 431 kts | 274° |
| 2026-05-04 23:14 | 35.38864 | -94.33098 | 27800 ft | 431 kts | 274° |
| 2026-05-04 23:14 | 35.38874 | -94.36770 | 27797 ft | 431 kts | 274° |
| 2026-05-04 23:15 | 35.38879 | -94.40446 | 27802 ft | 431 kts | 274° |
| 2026-05-04 23:15 | 35.38884 | -94.44116 | 27787 ft | 431 kts | 274° |
| 2026-05-04 23:15 | 35.38889 | -94.46550 | 27785 ft | 431 kts | 274° |
| 2026-05-04 23:15 | 35.38896 | -94.50215 | 27792 ft | 430 kts | 274° |
| 2026-05-04 23:16 | 35.38905 | -94.53886 | 27805 ft | 430 kts | 274° |
| 2026-05-04 23:16 | 35.38917 | -94.58745 | 27785 ft | 431 kts | 274° |
| 2026-05-04 23:16 | 35.38926 | -94.62415 | 27789 ft | 430 kts | 274° |
| 2026-05-04 23:16 | 35.38931 | -94.64892 | 27782 ft | 430 kts | 274° |
| 2026-05-04 23:17 | 35.38937 | -94.68561 | 27796 ft | 430 kts | 274° |
| 2026-05-04 23:17 | 35.38943 | -94.72226 | 27788 ft | 430 kts | 273° |
| 2026-05-04 23:17 | 35.38947 | -94.75898 | 27790 ft | 431 kts | 274° |
| 2026-05-04 23:17 | 35.38950 | -94.79577 | 27788 ft | 431 kts | 274° |
| 2026-05-04 23:18 | 35.38953 | -94.83202 | 27789 ft | 431 kts | 274° |
| 2026-05-04 23:18 | 35.38954 | -94.86872 | 27788 ft | 431 kts | 273° |
| 2026-05-04 23:18 | 35.38954 | -94.90544 | 27783 ft | 431 kts | 273° |
| 2026-05-04 23:18 | 35.38953 | -94.94224 | 27785 ft | 431 kts | 273° |
| 2026-05-04 23:19 | 35.38951 | -94.97891 | 27756 ft | 431 kts | 273° |
| 2026-05-04 23:19 | 35.38947 | -95.01565 | 27762 ft | 430 kts | 273° |
| 2026-05-04 23:19 | 35.38943 | -95.05232 | 27760 ft | 430 kts | 273° |
| 2026-05-04 23:19 | 35.38937 | -95.08907 | 27774 ft | 430 kts | 273° |
| 2026-05-04 23:20 | 35.38930 | -95.12577 | 27764 ft | 431 kts | 273° |
| 2026-05-04 23:20 | 35.38922 | -95.16244 | 27766 ft | 431 kts | 273° |
| 2026-05-04 23:20 | 35.38913 | -95.19914 | 27777 ft | 431 kts | 273° |
| 2026-05-04 23:20 | 35.38903 | -95.23582 | 27798 ft | 430 kts | 273° |
| 2026-05-04 23:21 | 35.38892 | -95.27206 | 27778 ft | 429 kts | 273° |
| 2026-05-04 23:21 | 35.38880 | -95.30862 | 27776 ft | 428 kts | 273° |
| 2026-05-04 23:21 | 35.38867 | -95.34503 | 27741 ft | 427 kts | 273° |
| 2026-05-04 23:21 | 35.38853 | -95.38133 | 27760 ft | 426 kts | 273° |
| 2026-05-04 23:22 | 35.38837 | -95.41765 | 27764 ft | 426 kts | 273° |
| 2026-05-04 23:22 | 35.38820 | -95.45387 | 27770 ft | 425 kts | 273° |
| 2026-05-04 23:22 | 35.38803 | -95.49018 | 27766 ft | 425 kts | 273° |
| 2026-05-04 23:22 | 35.38784 | -95.52642 | 27762 ft | 425 kts | 273° |
| 2026-05-04 23:23 | 35.38765 | -95.56278 | 27768 ft | 426 kts | 273° |
| 2026-05-04 23:23 | 35.38744 | -95.59906 | 27759 ft | 426 kts | 273° |
| 2026-05-04 23:23 | 35.38723 | -95.63542 | 27750 ft | 427 kts | 273° |
| 2026-05-04 23:23 | 35.38700 | -95.67172 | 27755 ft | 427 kts | 273° |
| 2026-05-04 23:24 | 35.38676 | -95.70807 | 27750 ft | 427 kts | 273° |
| 2026-05-04 23:24 | 35.38651 | -95.74451 | 27750 ft | 427 kts | 272° |
| 2026-05-04 23:24 | 35.38624 | -95.78084 | 27750 ft | 427 kts | 272° |
| 2026-05-04 23:24 | 35.38596 | -95.81721 | 27744 ft | 427 kts | 272° |
| 2026-05-04 23:25 | 35.38567 | -95.85326 | 27742 ft | 426 kts | 272° |
| 2026-05-04 23:25 | 35.38539 | -95.88941 | 27750 ft | 426 kts | 272° |
| 2026-05-04 23:25 | 35.38509 | -95.92587 | 27745 ft | 426 kts | 272° |
| 2026-05-04 23:25 | 35.38477 | -95.96225 | 27744 ft | 426 kts | 272° |
| 2026-05-04 23:26 | 35.38444 | -95.99867 | 27748 ft | 426 kts | 272° |
| 2026-05-04 23:26 | 35.38410 | -96.03501 | 27744 ft | 426 kts | 272° |
| 2026-05-04 23:26 | 35.38375 | -96.07130 | 27741 ft | 426 kts | 272° |
| 2026-05-04 23:26 | 35.38338 | -96.10770 | 27728 ft | 426 kts | 272° |
| 2026-05-04 23:27 | 35.38301 | -96.14400 | 27736 ft | 425 kts | 272° |
| 2026-05-04 23:27 | 35.38263 | -96.18024 | 27736 ft | 425 kts | 272° |
| 2026-05-04 23:27 | 35.38225 | -96.21596 | 27734 ft | 425 kts | 272° |
| 2026-05-04 23:27 | 35.38185 | -96.25216 | 27727 ft | 425 kts | 272° |
| 2026-05-04 23:28 | 35.38144 | -96.28845 | 27731 ft | 425 kts | 272° |
| 2026-05-04 23:28 | 35.38101 | -96.32459 | 27731 ft | 425 kts | 272° |
| 2026-05-04 23:28 | 35.38058 | -96.36080 | 27729 ft | 424 kts | 272° |
| 2026-05-04 23:28 | 35.38013 | -96.39695 | 27723 ft | 424 kts | 272° |
| 2026-05-04 23:29 | 35.37968 | -96.43311 | 27721 ft | 424 kts | 272° |
| 2026-05-04 23:29 | 35.37921 | -96.46928 | 27718 ft | 424 kts | 272° |
| 2026-05-04 23:29 | 35.37873 | -96.50544 | 27717 ft | 424 kts | 272° |
| 2026-05-04 23:29 | 35.37825 | -96.54151 | 27721 ft | 424 kts | 272° |
| 2026-05-04 23:30 | 35.37775 | -96.57717 | 27735 ft | 424 kts | 272° |
| 2026-05-04 23:30 | 35.37724 | -96.61328 | 27737 ft | 424 kts | 272° |
| 2026-05-04 23:30 | 35.37672 | -96.64941 | 27739 ft | 424 kts | 272° |
| 2026-05-04 23:30 | 35.37620 | -96.68551 | 27738 ft | 424 kts | 272° |
| 2026-05-04 23:31 | 35.37566 | -96.72160 | 27739 ft | 424 kts | 272° |
| 2026-05-04 23:31 | 35.37511 | -96.75765 | 27735 ft | 424 kts | 272° |
| 2026-05-04 23:31 | 35.37455 | -96.79345 | 27738 ft | 424 kts | 272° |
| 2026-05-04 23:31 | 35.37397 | -96.82998 | 27739 ft | 424 kts | 272° |
| 2026-05-04 23:32 | 35.37339 | -96.86610 | 27732 ft | 423 kts | 272° |
| 2026-05-04 23:32 | 35.37280 | -96.90169 | 27740 ft | 423 kts | 272° |
| 2026-05-04 23:32 | 35.37220 | -96.93780 | 27740 ft | 423 kts | 272° |
| 2026-05-04 23:32 | 35.37158 | -96.97384 | 27740 ft | 423 kts | 272° |
| 2026-05-04 23:33 | 35.37096 | -97.00987 | 27739 ft | 423 kts | 272° |
| 2026-05-04 23:33 | 35.37032 | -97.04584 | 27741 ft | 422 kts | 272° |
| 2026-05-04 23:33 | 35.36967 | -97.08190 | 27735 ft | 422 kts | 272° |
| 2026-05-04 23:33 | 35.36901 | -97.11788 | 27734 ft | 422 kts | 272° |
| 2026-05-04 23:34 | 35.36836 | -97.15339 | 27727 ft | 422 kts | 272° |